Time;durP1;ratioP1;P1;durP2;ratioP2;P2;SDS_P1;SDS_P2;PMS_P1;PMS_P2;Temp;Humidity;BMP_temperature;BMP_pressure;BME280_temperature;BME280_humidity;BME280_pressure;Samples;Min_cycle;Max_cycle;Signal;HPM_P1;HPM_P2
2024/01/01 00:00:43;;;;;;;48.20;28.60;;;;;;;3.28;92.73;99244.63;103211;1254;138480;-72
2024/01/01 00:03:32;;;;;;;44.40;27.60;;;;;;;3.29;92.77;99245.98;104197;1254;95665;-72
2024/01/01 00:06:01;;;;;;;46.20;28.20;;;;;;;3.31;92.92;99238.71;103728;1257;138447;-73
2024/01/01 00:08:28;;;;;;;45.40;29.10;;;;;;;3.32;92.96;99235.09;104451;1254;97816;-73
2024/01/01 00:10:55;;;;;;;49.60;29.70;;;;;;;3.32;92.95;99233.55;103123;1254;138343;-73
2024/01/01 00:13:22;;;;;;;46.60;29.00;;;;;;;3.32;93.09;99230.96;103620;1257;105631;-73
2024/01/01 00:15:49;;;;;;;48.50;31.10;;;;;;;3.30;93.24;99229.98;104160;1254;96266;-72
2024/01/01 00:18:16;;;;;;;45.80;31.30;;;;;;;3.29;93.05;99231.21;104482;1254;138657;-72
2024/01/01 00:20:43;;;;;;;50.00;31.30;;;;;;;3.28;93.15;99237.92;104110;1254;96519;-72
2024/01/01 00:23:09;;;;;;;54.00;32.70;;;;;;;3.26;93.30;99238.99;104506;1254;138265;-72
2024/01/01 00:25:36;;;;;;;50.70;32.60;;;;;;;3.27;93.25;99243.62;103499;1254;107934;-73
2024/01/01 00:28:04;;;;;;;51.00;32.70;;;;;;;3.26;93.29;99244.48;103236;1258;97882;-73
2024/01/01 00:30:31;;;;;;;51.10;32.10;;;;;;;3.26;93.52;99233.67;104059;1254;138279;-72
2024/01/01 00:32:59;;;;;;;43.30;29.20;;;;;;;3.24;93.52;99225.98;103324;1255;97813;-70
2024/01/01 00:35:26;;;;;;;48.60;30.20;;;;;;;3.25;93.78;99220.98;103162;1254;138496;-73
2024/01/01 00:37:53;;;;;;;46.80;29.90;;;;;;;3.25;93.84;99216.00;104530;1254;109252;-72
2024/01/01 00:40:19;;;;;;;45.00;28.20;;;;;;;3.26;93.76;99215.64;104592;1254;96060;-73
2024/01/01 00:42:47;;;;;;;44.10;27.90;;;;;;;3.30;93.77;99219.16;104294;1254;138484;-73
2024/01/01 00:45:14;;;;;;;45.70;27.90;;;;;;;3.32;93.85;99223.23;104569;1254;95669;-73
2024/01/01 00:47:41;;;;;;;44.50;27.70;;;;;;;3.31;93.77;99226.88;104507;1254;139521;-73
2024/01/01 00:50:09;;;;;;;45.50;29.30;;;;;;;3.33;93.83;99223.57;104568;1254;106944;-73
2024/01/01 00:52:39;;;;;;;44.80;29.20;;;;;;;3.34;93.70;99218.21;104593;1254;95797;-73
2024/01/01 00:55:07;;;;;;;46.90;31.20;;;;;;;3.38;93.68;99223.13;104489;1254;137554;-73
2024/01/01 00:57:34;;;;;;;47.60;30.50;;;;;;;3.38;93.75;99224.49;104597;1254;95779;-72
2024/01/01 01:00:01;;;;;;;46.30;28.70;;;;;;;3.37;93.63;99228.48;104481;1254;138280;-73
2024/01/01 01:02:27;;;;;;;42.70;27.70;;;;;;;3.33;93.77;99230.95;104566;1254;106726;-73
2024/01/01 01:04:54;;;;;;;40.30;25.40;;;;;;;3.31;93.76;99229.77;104471;1254;139265;-73
2024/01/01 01:07:31;;;;;;;41.60;25.60;;;;;;;3.32;93.74;99222.55;103458;1255;108582;-73
2024/01/01 01:09:58;;;;;;;38.90;24.80;;;;;;;3.35;94.03;99217.67;103727;1256;97800;-73
2024/01/01 01:12:25;;;;;;;38.00;25.00;;;;;;;3.38;93.86;99215.39;104488;1254;138385;-73
2024/01/01 01:14:52;;;;;;;38.00;26.30;;;;;;;3.40;94.11;99206.43;103196;1254;106591;-72
2024/01/01 01:17:18;;;;;;;41.00;27.10;;;;;;;3.44;94.02;99213.91;103383;1258;138209;-73
2024/01/01 01:19:45;;;;;;;43.50;29.10;;;;;;;3.44;93.67;99221.98;103393;1259;106523;-73
2024/01/01 01:22:12;;;;;;;42.30;26.80;;;;;;;3.41;93.73;99228.40;104030;1254;96492;-72
2024/01/01 01:24:39;;;;;;;41.40;25.60;;;;;;;3.38;93.72;99225.87;104472;1254;138811;-73
2024/01/01 01:27:06;;;;;;;37.80;24.20;;;;;;;3.37;93.85;99224.17;104562;1254;106698;-73
2024/01/01 01:29:33;;;;;;;39.20;25.20;;;;;;;3.37;93.88;99230.02;104023;1254;138808;-71
2024/01/01 01:32:00;;;;;;;40.20;25.00;;;;;;;3.36;94.08;99232.96;103845;1259;106807;-73
2024/01/01 01:34:27;;;;;;;37.80;24.20;;;;;;;3.37;93.97;99232.59;104040;1254;96496;-71
2024/01/01 01:36:53;;;;;;;41.60;26.70;;;;;;;3.41;93.98;99231.84;104171;1254;138088;-75
2024/01/01 01:39:20;;;;;;;39.20;26.10;;;;;;;3.45;94.04;99228.83;104020;1254;107091;-73
2024/01/01 01:41:49;;;;;;;46.10;29.00;;;;;;;3.47;94.17;99236.02;103930;1254;138119;-73
2024/01/01 01:44:15;;;;;;;44.20;30.50;;;;;;;3.44;93.72;99232.98;103674;1254;106623;-73
2024/01/01 01:46:42;;;;;;;45.60;27.30;;;;;;;3.40;93.77;99234.60;103117;1258;97998;-73
2024/01/01 01:49:10;;;;;;;41.30;25.70;;;;;;;3.37;93.62;99231.90;103898;1254;110481;-73
2024/01/01 01:51:36;;;;;;;39.20;24.70;;;;;;;3.35;93.85;99227.48;104113;1254;106736;-71
2024/01/01 01:54:03;;;;;;;41.90;25.20;;;;;;;3.36;94.04;99222.13;103145;1254;139517;-72
2024/01/01 01:56:31;;;;;;;37.30;24.20;;;;;;;3.38;93.82;99217.45;103761;1254;107875;-72
2024/01/01 01:58:58;;;;;;;37.00;23.90;;;;;;;3.40;94.17;99210.88;102897;1254;138767;-71
2024/01/01 02:01:26;;;;;;;40.80;25.60;;;;;;;3.43;94.06;99209.48;103255;1254;110767;-74
2024/01/01 02:03:53;;;;;;;40.30;26.20;;;;;;;3.43;93.96;99208.60;103701;1254;107931;-73
2024/01/01 02:06:20;;;;;;;46.50;29.00;;;;;;;3.45;94.03;99206.49;102382;1254;1002375;-72
2024/01/01 02:08:47;;;;;;;46.30;30.10;;;;;;;3.45;93.60;99202.20;103698;1258;107777;-72
2024/01/01 02:11:14;;;;;;;39.60;26.40;;;;;;;3.43;93.87;99200.70;103860;1254;137955;-73
2024/01/01 02:13:41;;;;;;;38.80;25.40;;;;;;;3.39;93.88;99199.73;104094;1254;110510;-72
2024/01/01 02:16:08;;;;;;;37.80;24.20;;;;;;;3.35;93.63;99199.98;103185;1256;107705;-73
2024/01/01 02:18:35;;;;;;;39.50;24.60;;;;;;;3.34;93.93;99200.34;103680;1254;138622;-71
2024/01/01 02:21:02;;;;;;;36.70;23.30;;;;;;;3.34;94.03;99201.90;104481;1254;107778;-71
2024/01/01 02:23:29;;;;;;;35.70;24.00;;;;;;;3.33;93.94;99205.88;103486;1254;139407;-71
2024/01/01 02:25:56;;;;;;;35.00;22.70;;;;;;;3.32;94.06;99204.00;103674;1254;110689;-73
2024/01/01 02:28:23;;;;;;;36.00;24.70;;;;;;;3.31;94.33;99199.05;103677;1254;106598;-73
2024/01/01 02:30:50;;;;;;;40.70;26.20;;;;;;;3.30;94.33;99193.03;104522;1255;138736;-73
2024/01/01 02:33:17;;;;;;;41.40;27.30;;;;;;;3.29;94.43;99188.59;104423;1254;108465;-72
2024/01/01 02:35:44;;;;;;;43.30;26.80;;;;;;;3.27;94.53;99185.54;104517;1254;138032;-73
2024/01/01 02:38:10;;;;;;;41.30;27.40;;;;;;;3.25;94.42;99185.42;103533;1255;111054;-73
2024/01/01 02:40:38;;;;;;;41.50;26.50;;;;;;;3.23;94.40;99184.94;104060;1254;106952;-73
2024/01/01 02:43:05;;;;;;;41.30;26.60;;;;;;;3.21;94.61;99188.23;103266;1259;139231;-72
2024/01/01 02:45:33;;;;;;;40.90;26.80;;;;;;;3.19;94.65;99179.52;103606;1256;106173;-72
2024/01/01 02:48:00;;;;;;;41.50;27.80;;;;;;;3.17;94.74;99176.63;103589;1254;138757;-71
2024/01/01 02:50:28;;;;;;;37.70;26.50;;;;;;;3.14;94.51;99165.02;103983;1254;111248;-71
2024/01/01 02:52:56;;;;;;;43.30;27.60;;;;;;;3.12;94.58;99160.95;103838;1254;138646;-72
2024/01/01 02:55:23;;;;;;;41.20;27.80;;;;;;;3.10;94.94;99162.02;103503;1254;97827;-71
2024/01/01 02:57:50;;;;;;;40.00;26.10;;;;;;;3.08;95.04;99162.92;103469;1258;107396;-72
2024/01/01 03:00:18;;;;;;;39.30;26.30;;;;;;;3.06;95.02;99159.33;103144;1259;139576;-72
2024/01/01 03:02:45;;;;;;;43.60;26.40;;;;;;;3.05;95.07;99156.43;104076;1254;110472;-72
2024/01/01 03:05:12;;;;;;;36.90;25.90;;;;;;;3.03;95.26;99162.28;104246;1254;138568;-72
2024/01/01 03:07:39;;;;;;;43.00;26.40;;;;;;;3.02;95.29;99162.65;104632;1254;96053;-73
2024/01/01 03:10:07;;;;;;;39.70;26.60;;;;;;;3.02;95.29;99164.54;104598;1254;108276;-73
2024/01/01 03:12:34;;;;;;;41.80;27.20;;;;;;;3.00;95.25;99159.25;104490;1254;138691;-72
2024/01/01 03:15:01;;;;;;;43.40;27.70;;;;;;;3.00;95.50;99156.34;103359;1256;111421;-72
2024/01/01 03:17:28;;;;;;;41.90;27.50;;;;;;;3.00;95.52;99160.46;102973;1260;139488;-72
2024/01/01 03:19:55;;;;;;;40.10;27.00;;;;;;;2.97;95.55;99161.05;104318;1254;96589;-73
2024/01/01 03:22:22;;;;;;;43.40;27.80;;;;;;;2.96;95.38;99163.98;104092;1254;106829;-71
2024/01/01 03:24:49;;;;;;;43.00;26.70;;;;;;;2.94;95.74;99160.58;104274;1256;139511;-72
2024/01/01 03:27:16;;;;;;;43.10;26.20;;;;;;;2.95;95.51;99162.29;103522;1254;111460;-71
2024/01/01 03:29:43;;;;;;;41.30;26.90;;;;;;;2.94;95.67;99155.77;103712;1254;138450;-72
2024/01/01 03:32:10;;;;;;;41.90;26.50;;;;;;;2.91;95.76;99151.70;103220;1254;98723;-71
2024/01/01 03:34:37;;;;;;;42.10;27.60;;;;;;;2.93;95.72;99157.17;103228;1254;107893;-71
2024/01/01 03:37:04;;;;;;;46.20;28.00;;;;;;;2.92;95.87;99160.11;103141;1254;138200;-71
2024/01/01 03:39:31;;;;;;;43.50;26.80;;;;;;;2.91;95.81;99159.10;103407;1254;110999;-71
2024/01/01 03:41:58;;;;;;;43.70;27.70;;;;;;;2.91;95.90;99162.54;104000;1256;139200;-72
2024/01/01 03:44:25;;;;;;;42.60;27.20;;;;;;;2.89;95.97;99164.64;104291;1254;96380;-72
2024/01/01 03:46:52;;;;;;;37.70;26.90;;;;;;;2.91;96.19;99163.40;104481;1254;138361;-72
2024/01/01 03:49:18;;;;;;;44.40;27.30;;;;;;;2.93;96.16;99167.13;104613;1254;95954;-72
2024/01/01 03:51:45;;;;;;;39.80;26.40;;;;;;;2.94;96.11;99167.79;103888;1254;111010;-71
2024/01/01 03:54:12;;;;;;;45.60;28.70;;;;;;;2.95;95.86;99162.29;103602;1254;138397;-71
2024/01/01 03:56:39;;;;;;;41.00;26.40;;;;;;;2.99;96.06;99162.02;103463;1255;97841;-73
2024/01/01 03:59:07;;;;;;;43.60;27.20;;;;;;;3.01;96.09;99159.23;104080;1254;138882;-73
2024/01/01 04:01:35;;;;;;;42.30;27.10;;;;;;;3.03;95.95;99153.19;104177;1254;95758;-72
2024/01/01 04:04:03;;;;;;;37.60;26.20;;;;;;;3.03;96.00;99148.38;104620;1254;110579;-72
2024/01/01 04:06:30;;;;;;;41.90;27.30;;;;;;;3.03;96.10;99147.17;103588;1254;1003589;-73
2024/01/01 04:08:57;;;;;;;41.70;26.90;;;;;;;3.04;96.10;99141.83;104470;1254;96026;-72
2024/01/01 04:11:24;;;;;;;39.30;26.80;;;;;;;3.04;96.16;99139.77;104527;1254;138710;-72
2024/01/01 04:13:51;;;;;;;43.60;27.60;;;;;;;3.04;96.23;99136.51;103869;1254;1002376;-72
2024/01/01 04:16:18;;;;;;;43.40;27.10;;;;;;;3.05;96.28;99134.96;104597;1254;111074;-72
2024/01/01 04:18:44;;;;;;;44.20;26.20;;;;;;;3.06;96.15;99127.91;104483;1254;138897;-73
2024/01/01 04:21:11;;;;;;;39.40;26.40;;;;;;;3.09;96.24;99128.38;104611;1254;96028;-72
2024/01/01 04:23:38;;;;;;;41.40;27.20;;;;;;;3.11;96.26;99133.14;104511;1254;138756;-73
2024/01/01 04:26:05;;;;;;;40.60;27.40;;;;;;;3.11;95.98;99132.61;104439;1255;100637;-72
2024/01/01 04:28:32;;;;;;;44.00;27.50;;;;;;;3.12;96.10;99132.77;103314;1254;110717;-71
2024/01/01 04:30:59;;;;;;;40.60;26.70;;;;;;;3.12;96.04;99132.77;103121;1254;138426;-72
2024/01/01 04:33:26;;;;;;;39.90;26.40;;;;;;;3.11;96.09;99129.00;103936;1254;97942;-72
2024/01/01 04:35:53;;;;;;;44.40;27.20;;;;;;;3.11;96.07;99127.13;103185;1258;138333;-70
2024/01/01 04:38:20;;;;;;;40.70;26.20;;;;;;;3.10;96.09;99124.41;103214;1254;97987;-71
2024/01/01 04:40:47;;;;;;;41.70;26.50;;;;;;;3.09;96.30;99118.08;103421;1254;111196;-72
2024/01/01 04:43:14;;;;;;;42.30;26.60;;;;;;;3.10;96.29;99108.94;103729;1254;107639;-71
2024/01/01 04:45:41;;;;;;;42.10;28.10;;;;;;;3.12;96.37;99110.28;103269;1254;98301;-71
2024/01/01 04:48:09;;;;;;;42.10;28.00;;;;;;;3.13;96.42;99109.58;103389;1254;138348;-72
2024/01/01 04:50:36;;;;;;;38.70;26.50;;;;;;;3.14;96.29;99110.91;104634;1254;96760;-72
2024/01/01 04:53:03;;;;;;;42.20;27.30;;;;;;;3.14;96.30;99113.65;104499;1254;138493;-73
2024/01/01 04:55:30;;;;;;;43.00;27.80;;;;;;;3.16;96.18;99107.95;104570;1254;107213;-71
2024/01/01 04:57:57;;;;;;;41.80;27.30;;;;;;;3.19;96.18;99097.06;103704;1254;98526;-72
2024/01/01 05:00:23;;;;;;;41.40;27.60;;;;;;;3.20;96.13;99096.53;103469;1254;138380;-72
2024/01/01 05:02:50;;;;;;;39.20;27.60;;;;;;;3.21;96.15;99097.86;103243;1254;98471;-72
2024/01/01 05:05:17;;;;;;;41.90;27.70;;;;;;;3.23;96.08;99101.63;103200;1254;139073;-72
2024/01/01 05:07:45;;;;;;;41.10;27.60;;;;;;;3.23;96.03;99107.80;103287;1256;107011;-72
2024/01/01 05:10:12;;;;;;;44.10;28.00;;;;;;;3.22;95.96;99113.13;104116;1254;97687;-72
2024/01/01 05:12:39;;;;;;;42.30;28.10;;;;;;;3.22;95.93;99101.12;104486;1254;138586;-72
2024/01/01 05:15:07;;;;;;;45.00;28.90;;;;;;;3.21;95.98;99099.92;104623;1254;96206;-72
2024/01/01 05:17:33;;;;;;;45.50;28.30;;;;;;;3.19;95.98;99107.88;104509;1254;138785;-72
2024/01/01 05:20:00;;;;;;;44.00;27.90;;;;;;;3.18;96.13;99107.39;103748;1254;106873;-71
2024/01/01 05:22:27;;;;;;;49.60;30.80;;;;;;;3.17;95.97;99099.51;104603;1255;96171;-72
2024/01/01 05:24:54;;;;;;;46.60;29.90;;;;;;;3.17;96.19;99102.09;104488;1254;139194;-72
2024/01/01 05:27:21;;;;;;;48.30;30.20;;;;;;;3.15;96.15;99104.88;104603;1258;95900;-71
2024/01/01 05:29:48;;;;;;;49.90;30.20;;;;;;;3.17;96.10;99103.46;104519;1254;138360;-72
2024/01/01 05:32:15;;;;;;;50.90;30.60;;;;;;;3.17;96.29;99106.90;104579;1258;106650;-73
2024/01/01 05:34:43;;;;;;;47.90;30.10;;;;;;;3.15;96.14;99112.10;104643;1254;95916;-72
2024/01/01 05:37:10;;;;;;;49.30;30.70;;;;;;;3.14;96.10;99112.80;104603;1254;108095;-72
2024/01/01 05:39:37;;;;;;;56.30;31.90;;;;;;;3.15;96.41;99107.28;104641;1254;95873;-72
2024/01/01 05:42:04;;;;;;;54.20;32.50;;;;;;;3.15;96.46;99100.59;104077;1254;138213;-72
2024/01/01 05:44:31;;;;;;;51.50;31.70;;;;;;;3.16;96.49;99100.56;103229;1254;108257;-71
2024/01/01 05:46:58;;;;;;;52.30;30.80;;;;;;;3.15;96.40;99099.04;103176;1255;138563;-72
2024/01/01 05:49:25;;;;;;;52.50;32.60;;;;;;;3.12;96.38;99100.47;104564;1254;107091;-72
2024/01/01 05:51:52;;;;;;;55.00;32.70;;;;;;;3.11;96.41;99098.27;103255;1254;97778;-71
2024/01/01 05:54:19;;;;;;;51.70;32.30;;;;;;;3.10;96.44;99095.20;103406;1258;138309;-72
2024/01/01 05:56:46;;;;;;;57.90;32.90;;;;;;;3.10;96.63;99095.56;104277;1254;108728;-72
2024/01/01 05:59:12;;;;;;;56.70;33.00;;;;;;;3.11;96.56;99089.70;104505;1254;139353;-71
2024/01/01 06:01:40;;;;;;;52.70;31.90;;;;;;;3.13;96.71;99093.25;104583;1254;107413;-72
2024/01/01 06:04:06;;;;;;;57.10;32.90;;;;;;;3.15;96.68;99088.39;104639;1254;95800;-71
2024/01/01 06:06:35;;;;;;;58.30;34.50;;;;;;;3.15;96.65;99085.48;104471;1254;138128;-71
2024/01/01 06:09:02;;;;;;;59.60;35.00;;;;;;;3.15;96.78;99089.43;103626;1256;107048;-73
2024/01/01 06:11:29;;;;;;;56.70;35.00;;;;;;;3.12;96.42;99092.92;103107;1258;140249;-73
2024/01/01 06:13:57;;;;;;;58.80;34.00;;;;;;;3.11;96.31;99087.98;103165;1258;108174;-72
2024/01/01 06:16:25;;;;;;;68.10;35.30;;;;;;;3.09;96.48;99087.84;103085;1259;97951;-72
2024/01/01 06:18:51;;;;;;;70.10;35.50;;;;;;;3.07;96.62;99089.95;103043;1256;138520;-72
2024/01/01 06:21:18;;;;;;;67.80;38.60;;;;;;;3.07;96.71;99096.48;103133;1254;108327;-73
2024/01/01 06:23:46;;;;;;;62.40;35.90;;;;;;;3.05;96.60;99099.41;103091;1254;138480;-73
2024/01/01 06:26:13;;;;;;;61.20;35.70;;;;;;;3.04;96.65;99101.65;103169;1254;108498;-73
2024/01/01 06:28:41;;;;;;;62.00;36.10;;;;;;;3.05;96.86;99097.19;103177;1254;97796;-73
2024/01/01 06:31:08;;;;;;;64.00;36.50;;;;;;;3.08;96.96;99096.98;103086;1258;139666;-73
2024/01/01 06:33:34;;;;;;;66.10;37.40;;;;;;;3.09;96.84;99101.05;103176;1258;107612;-72
2024/01/01 06:36:01;;;;;;;62.50;36.40;;;;;;;3.12;96.95;99098.59;103004;1254;138465;-73
2024/01/01 06:38:28;;;;;;;61.90;36.40;;;;;;;3.15;96.98;99095.27;103196;1254;106710;-72
2024/01/01 06:40:55;;;;;;;67.10;35.40;;;;;;;3.19;96.97;99091.23;103059;1261;138658;-72
2024/01/01 06:43:22;;;;;;;63.90;36.90;;;;;;;3.19;96.78;99083.84;103203;1254;111204;-72
2024/01/01 06:45:49;;;;;;;57.50;35.50;;;;;;;3.22;96.71;99082.40;103185;1258;106842;-72
2024/01/01 06:48:15;;;;;;;60.60;37.30;;;;;;;3.28;96.78;99081.95;103258;1258;138388;-71
2024/01/01 06:50:43;;;;;;;65.70;37.80;;;;;;;3.31;96.79;99086.16;103341;1255;108001;-71
2024/01/01 06:53:10;;;;;;;63.00;36.70;;;;;;;3.34;96.52;99080.76;103201;1254;138654;-71
2024/01/01 06:55:37;;;;;;;63.20;37.00;;;;;;;3.40;96.57;99086.48;103362;1256;110969;-71
2024/01/01 06:58:04;;;;;;;58.00;34.80;;;;;;;3.46;96.56;99085.85;104085;1254;107852;-71
2024/01/01 07:00:31;;;;;;;61.90;36.40;;;;;;;3.51;96.40;99085.91;103828;1254;139654;-72
2024/01/01 07:02:59;;;;;;;59.80;35.40;;;;;;;3.59;96.36;99082.46;103378;1254;107065;-73
2024/01/01 07:05:28;;;;;;;58.70;35.00;;;;;;;3.64;96.18;99079.59;103820;1254;138580;-71
2024/01/01 07:07:55;;;;;;;59.10;35.30;;;;;;;3.74;96.14;99079.70;104288;1254;110895;-72
2024/01/01 07:10:23;;;;;;;54.90;34.20;;;;;;;3.78;95.64;99076.02;103974;1254;108324;-71
2024/01/01 07:12:50;;;;;;;56.70;34.80;;;;;;;3.83;95.67;99078.13;104332;1254;138471;-71
2024/01/01 07:15:17;;;;;;;60.20;35.50;;;;;;;3.92;95.86;99081.68;104507;1254;106993;-72
2024/01/01 07:17:43;;;;;;;56.00;34.90;;;;;;;4.04;95.69;99081.91;103096;1256;138421;-72
2024/01/01 07:20:12;;;;;;;54.80;33.00;;;;;;;4.12;95.25;99084.48;104295;1254;111630;-71
2024/01/01 07:22:40;;;;;;;58.90;35.90;;;;;;;4.19;94.96;99089.80;103289;1255;108607;-72
2024/01/01 07:25:09;;;;;;;53.50;33.00;;;;;;;4.24;94.83;99089.31;103191;1257;138246;-72
2024/01/01 07:27:36;;;;;;;56.30;34.40;;;;;;;4.27;94.31;99090.45;104297;1254;106923;-71
2024/01/01 07:30:04;;;;;;;58.10;33.80;;;;;;;4.30;94.14;99091.58;104103;1254;138978;-72
2024/01/01 07:32:31;;;;;;;53.20;34.10;;;;;;;4.33;93.99;99089.47;103229;1254;111868;-71
2024/01/01 07:34:59;;;;;;;56.10;34.60;;;;;;;4.37;93.70;99087.98;103428;1254;139513;-72
2024/01/01 07:37:26;;;;;;;54.50;33.80;;;;;;;4.40;93.55;99084.12;104663;1254;96230;-72
2024/01/01 07:39:53;;;;;;;62.30;36.90;;;;;;;4.41;93.29;99087.36;104591;1254;107307;-72
2024/01/01 07:42:20;;;;;;;65.40;37.10;;;;;;;4.40;93.12;99089.96;104480;1254;139736;-72
2024/01/01 07:44:47;;;;;;;61.30;36.40;;;;;;;4.38;92.79;99095.70;103524;1258;110968;-71
2024/01/01 07:47:15;;;;;;;62.40;37.20;;;;;;;4.38;92.82;99095.02;103028;1255;138660;-72
2024/01/01 07:49:44;;;;;;;65.10;37.90;;;;;;;4.35;92.53;99099.21;103213;1254;97801;-70
2024/01/01 07:52:11;;;;;;;68.30;38.10;;;;;;;4.34;92.40;99098.57;103298;1254;107849;-71
2024/01/01 07:54:39;;;;;;;64.20;37.10;;;;;;;4.31;92.19;99097.24;103083;1254;138474;-71
2024/01/01 07:57:07;;;;;;;61.80;37.00;;;;;;;4.31;92.67;99099.14;103274;1258;112679;-71
2024/01/01 07:59:34;;;;;;;64.70;37.50;;;;;;;4.31;92.51;99101.21;104360;1254;139579;-72
2024/01/01 08:02:00;;;;;;;66.80;37.70;;;;;;;4.28;92.30;99103.52;103258;1254;98335;-72
2024/01/01 08:04:28;;;;;;;66.30;38.70;;;;;;;4.26;92.16;99101.84;103190;1254;107877;-71
2024/01/01 08:06:55;;;;;;;67.70;38.90;;;;;;;4.25;92.28;99097.05;103420;1254;139836;-71
2024/01/01 08:09:21;;;;;;;67.00;37.90;;;;;;;4.23;92.15;99093.30;103292;1254;112157;-71
2024/01/01 08:11:48;;;;;;;64.10;37.30;;;;;;;4.21;92.33;99092.85;103129;1258;139411;-71
2024/01/01 08:14:15;;;;;;;65.10;36.90;;;;;;;4.13;92.18;99078.78;103275;1254;97858;-72
2024/01/01 08:16:42;;;;;;;62.90;38.00;;;;;;;4.17;92.50;99084.17;103268;1254;108631;-72
2024/01/01 08:19:09;;;;;;;61.10;37.00;;;;;;;4.18;92.32;99080.89;103245;1254;97794;-70
2024/01/01 08:21:36;;;;;;;67.50;38.90;;;;;;;4.18;92.59;99079.52;103252;1254;111152;-72
2024/01/01 08:24:03;;;;;;;64.30;39.00;;;;;;;4.19;92.59;99084.46;103053;1256;138499;-71
2024/01/01 08:26:30;;;;;;;66.50;39.30;;;;;;;4.21;92.52;99089.73;103249;1258;98499;-73
2024/01/01 08:28:57;;;;;;;70.90;40.20;;;;;;;4.22;92.62;99083.88;103126;1258;138622;-71
2024/01/01 08:31:24;;;;;;;75.20;39.70;;;;;;;4.20;92.43;99081.70;103172;1258;97812;-72
2024/01/01 08:33:51;;;;;;;72.90;38.60;;;;;;;4.16;92.35;99078.02;104462;1255;111562;-72
2024/01/01 08:36:19;;;;;;;74.40;39.80;;;;;;;4.12;92.42;99078.95;103181;1254;138855;-72
2024/01/01 08:38:46;;;;;;;69.60;39.50;;;;;;;4.10;92.38;99081.59;103287;1258;98067;-72
2024/01/01 08:41:13;;;;;;;70.40;38.70;;;;;;;4.06;92.66;99074.30;103151;1258;138934;-71
2024/01/01 08:43:46;;;;;;;75.10;39.50;;;;;;;4.03;92.51;99076.27;103238;1256;97715;-72
2024/01/01 08:46:14;;;;;;;72.80;39.70;;;;;;;4.03;92.68;99078.33;103083;1256;111447;-73
2024/01/01 08:48:40;;;;;;;66.80;38.20;;;;;;;4.02;92.92;99079.56;103057;1256;138399;-72
2024/01/01 08:51:08;;;;;;;63.50;38.10;;;;;;;4.00;92.78;99075.33;103332;1254;98721;-72
2024/01/01 08:53:35;;;;;;;67.30;36.60;;;;;;;3.98;92.94;99075.54;103170;1255;138248;-72
2024/01/01 08:56:02;;;;;;;65.00;36.10;;;;;;;3.97;93.05;99072.14;103295;1254;98002;-71
2024/01/01 08:58:30;;;;;;;63.30;36.00;;;;;;;3.94;93.03;99069.61;103274;1254;111260;-71
2024/01/01 09:00:56;;;;;;;60.50;36.50;;;;;;;3.98;93.22;99070.56;104018;1254;138579;-72
2024/01/01 09:03:23;;;;;;;64.80;36.10;;;;;;;4.00;93.33;99076.35;103133;1260;97797;-71
2024/01/01 09:05:53;;;;;;;61.00;36.30;;;;;;;4.03;93.17;99072.48;103662;1255;139496;-73
2024/01/01 09:08:20;;;;;;;65.40;37.90;;;;;;;4.06;93.30;99073.09;104548;1256;95945;-71
2024/01/01 09:10:47;;;;;;;61.70;36.90;;;;;;;4.07;93.48;99074.10;104555;1256;111161;-72
2024/01/01 09:13:14;;;;;;;61.70;36.20;;;;;;;4.08;93.19;99072.52;103655;1255;107686;-72
2024/01/01 09:15:41;;;;;;;62.70;35.80;;;;;;;4.09;93.06;99068.20;103195;1256;97792;-72
2024/01/01 09:18:08;;;;;;;61.50;35.70;;;;;;;4.10;93.15;99068.85;103426;1256;138216;-72
2024/01/01 09:20:38;;;;;;;57.10;34.00;;;;;;;4.10;93.27;99070.40;104516;1259;95865;-72
2024/01/01 09:23:06;;;;;;;58.70;35.20;;;;;;;4.11;93.24;99071.76;103158;1256;139297;-72
2024/01/01 09:25:33;;;;;;;58.70;35.50;;;;;;;4.12;93.08;99072.77;103828;1255;107837;-71
2024/01/01 09:28:00;;;;;;;56.10;33.70;;;;;;;4.13;92.88;99073.95;103053;1255;99493;-72
2024/01/01 09:30:26;;;;;;;52.30;33.00;;;;;;;4.16;93.05;99069.58;103016;1256;138494;-73
2024/01/01 09:32:53;;;;;;;55.00;32.60;;;;;;;4.17;92.98;99067.84;103128;1256;97893;-72
2024/01/01 09:35:20;;;;;;;51.90;31.50;;;;;;;4.19;92.82;99067.27;103405;1256;138755;-72
2024/01/01 09:37:52;;;;;;;55.80;34.50;;;;;;;4.18;92.66;99059.02;103195;1256;107918;-73
2024/01/01 09:40:20;;;;;;;52.50;32.00;;;;;;;4.19;92.75;99056.42;103219;1255;98339;-73
2024/01/01 09:42:50;;;;;;;48.10;29.90;;;;;;;4.21;92.89;99053.97;102536;1256;1003263;-73
2024/01/01 09:45:17;;;;;;;48.20;30.40;;;;;;;4.22;92.78;99052.56;103053;1261;97817;-73
2024/01/01 09:47:45;;;;;;;45.50;29.80;;;;;;;4.21;92.74;99050.36;103010;1256;138220;-73
2024/01/01 09:50:12;;;;;;;48.30;30.80;;;;;;;4.21;92.76;99048.45;103004;1256;107656;-73
2024/01/01 09:52:39;;;;;;;51.10;32.70;;;;;;;4.22;92.80;99051.34;103100;1256;97730;-73
2024/01/01 09:55:07;;;;;;;53.90;33.30;;;;;;;4.25;92.99;99049.90;104311;1255;138581;-74
2024/01/01 09:57:34;;;;;;;52.00;32.80;;;;;;;4.29;93.36;99047.39;103627;1256;97826;-73
2024/01/01 10:00:05;;;;;;;55.60;33.90;;;;;;;4.27;92.63;99042.98;102979;1256;138144;-73
2024/01/01 10:02:37;;;;;;;54.10;32.00;;;;;;;4.26;92.79;99042.48;103101;1259;107958;-73
2024/01/01 10:05:14;;;;;;;53.00;32.40;;;;;;;4.27;93.02;99041.78;103032;1255;139126;-74
2024/01/01 10:07:42;;;;;;;54.30;32.80;;;;;;;4.28;93.29;99042.44;103110;1256;107177;-73
2024/01/01 10:10:12;;;;;;;50.20;31.90;;;;;;;4.31;93.79;99042.38;103103;1254;97692;-73
2024/01/01 10:12:45;;;;;;;50.90;32.40;;;;;;;4.40;93.98;99041.77;102975;1255;138165;-73
2024/01/01 10:15:14;;;;;;;50.60;31.90;;;;;;;4.50;94.25;99036.52;103129;1258;108007;-73
2024/01/01 10:17:41;;;;;;;50.60;32.40;;;;;;;4.52;93.69;99036.45;103077;1254;138402;-73
2024/01/01 10:20:10;;;;;;;48.00;31.60;;;;;;;4.55;93.65;99030.70;103164;1254;107077;-73
2024/01/01 10:22:37;;;;;;;51.90;32.20;;;;;;;4.60;94.05;99030.36;103210;1256;97814;-71
2024/01/01 10:25:14;;;;;;;44.30;29.70;;;;;;;4.65;93.51;99031.45;103144;1258;138562;-73
2024/01/01 10:27:44;;;;;;;48.00;31.10;;;;;;;4.66;93.45;99028.15;103232;1257;108524;-71
2024/01/01 10:30:12;;;;;;;47.50;31.10;;;;;;;4.64;93.10;99028.37;102970;1258;138421;-72
2024/01/01 10:32:40;;;;;;;42.00;28.60;;;;;;;4.62;92.94;99030.17;103344;1254;107843;-72
2024/01/01 10:35:09;;;;;;;41.70;28.50;;;;;;;4.56;92.73;99022.94;103270;1256;138538;-72
2024/01/01 10:37:37;;;;;;;42.90;27.90;;;;;;;4.55;92.60;99023.98;103518;1254;111332;-72
2024/01/01 10:40:05;;;;;;;40.30;28.10;;;;;;;4.51;92.29;99022.03;103277;1256;107170;-74
2024/01/01 10:42:35;;;;;;;39.30;27.00;;;;;;;4.51;92.68;99021.52;103622;1258;138612;-72
2024/01/01 10:45:04;;;;;;;39.60;28.20;;;;;;;4.50;92.25;99022.59;103577;1256;108448;-72
2024/01/01 10:47:32;;;;;;;38.50;26.70;;;;;;;4.46;92.43;99020.45;103256;1256;138501;-73
2024/01/01 10:50:14;;;;;;;38.30;27.10;;;;;;;4.44;92.58;99014.47;103266;1256;111483;-74
2024/01/01 10:52:55;;;;;;;39.10;27.10;;;;;;;4.47;92.90;99014.03;103277;1254;108948;-72
2024/01/01 10:55:39;;;;;;;36.10;26.40;;;;;;;4.47;92.79;99008.72;103340;1254;99481;-72
2024/01/01 10:58:19;;;;;;;41.00;28.50;;;;;;;4.43;92.85;99002.09;103343;1255;107925;-73
2024/01/01 11:01:02;;;;;;;40.20;26.40;;;;;;;4.47;92.60;99005.93;103180;1256;138370;-74
2024/01/01 11:03:30;;;;;;;42.40;27.00;;;;;;;4.44;92.36;99009.48;103578;1254;111394;-71
2024/01/01 11:05:57;;;;;;;38.10;26.20;;;;;;;4.40;92.30;99007.36;103371;1255;138452;-73
2024/01/01 11:08:30;;;;;;;37.90;26.90;;;;;;;4.39;92.50;99006.34;103511;1258;98613;-73
2024/01/01 11:10:58;;;;;;;36.40;25.90;;;;;;;4.39;92.49;98999.64;103249;1256;139905;-73
2024/01/01 11:13:57;;;;;;;36.00;25.90;;;;;;;4.39;92.69;98992.94;103556;1256;97794;-73